createdAt,value
2022-12-31T00:00:02.097Z,4.07
2022-12-31T00:01:10.492Z,3.10
2022-12-31T00:02:13.159Z,3.38
2022-12-31T00:03:15.978Z,2.97
2022-12-31T00:04:18.548Z,3.08
2022-12-31T00:05:21.077Z,3.05
2022-12-31T00:06:25.500Z,2.92
2022-12-31T00:07:28.263Z,2.47
2022-12-31T00:08:31.025Z,3.08
2022-12-31T00:09:33.665Z,2.90
2022-12-31T00:10:41.410Z,2.78
2022-12-31T00:11:44.229Z,3.08
2022-12-31T00:12:46.751Z,3.13
2022-12-31T00:13:49.754Z,2.97
2022-12-31T00:14:52.280Z,2.38
2022-12-31T00:15:54.925Z,3.25
2022-12-31T00:16:57.842Z,2.78
2022-12-31T00:18:00.459Z,2.90
2022-12-31T00:19:04.206Z,3.30
2022-12-31T00:20:07.525Z,3.28
2022-12-31T00:21:11.004Z,3.03
2022-12-31T00:22:13.765Z,2.90
2022-12-31T00:23:17.068Z,2.35
2022-12-31T00:24:19.905Z,2.63
2022-12-31T00:25:23.022Z,3.05
2022-12-31T00:26:28.894Z,3.90
2022-12-31T00:27:32.377Z,2.72
2022-12-31T00:28:36.938Z,2.78
2022-12-31T00:29:39.835Z,2.97
2022-12-31T00:30:42.830Z,2.78
2022-12-31T00:31:45.830Z,3.25
2022-12-31T00:32:48.943Z,3.63
2022-12-31T00:33:52.784Z,3.13
2022-12-31T00:34:55.907Z,3.60
2022-12-31T00:36:15.232Z,3.65
2022-12-31T00:37:18.470Z,2.58
2022-12-31T00:38:21.600Z,2.65
2022-12-31T00:39:24.953Z,3.70
2022-12-31T00:40:30.239Z,2.83
2022-12-31T00:41:33.839Z,3.60
2022-12-31T00:42:36.971Z,3.70
2022-12-31T00:43:40.087Z,3.53
2022-12-31T00:44:43.204Z,3.50
2022-12-31T00:45:46.380Z,3.65
2022-12-31T00:46:49.566Z,3.58
2022-12-31T00:47:52.689Z,3.25
2022-12-31T00:48:55.809Z,3.75
2022-12-31T00:49:58.932Z,3.30
2022-12-31T00:51:03.380Z,3.72
2022-12-31T00:52:06.977Z,4.15
2022-12-31T00:53:10.100Z,4.50
2022-12-31T00:54:14.545Z,3.97
2022-12-31T00:55:17.784Z,4.13
2022-12-31T00:56:24.022Z,4.82
2022-12-31T00:57:27.264Z,4.60
2022-12-31T00:58:31.106Z,4.47
2022-12-31T00:59:34.587Z,4.45
2022-12-31T01:00:38.788Z,5.18
2022-12-31T01:01:43.573Z,4.45
2022-12-31T01:02:46.935Z,4.75
2022-12-31T01:03:52.846Z,4.82
2022-12-31T01:04:56.076Z,5.00
2022-12-31T01:06:00.044Z,4.68
2022-12-31T01:07:02.917Z,4.55
2022-12-31T01:08:06.180Z,5.55
2022-12-31T01:09:10.722Z,5.28
2022-12-31T01:10:33.460Z,4.65
2022-12-31T01:11:36.529Z,4.82
2022-12-31T01:12:39.222Z,4.88
2022-12-31T01:13:41.861Z,4.78
2022-12-31T01:14:44.517Z,5.00
2022-12-31T01:15:47.529Z,5.43
2022-12-31T01:16:52.863Z,5.60
2022-12-31T01:17:55.433Z,4.22
2022-12-31T01:19:03.471Z,5.28
2022-12-31T01:20:06.585Z,4.90
2022-12-31T01:21:11.990Z,5.22
2022-12-31T01:22:14.511Z,5.05
2022-12-31T01:23:17.049Z,4.93
2022-12-31T01:24:20.404Z,4.78
2022-12-31T01:25:24.952Z,5.47
2022-12-31T01:26:28.533Z,5.35
2022-12-31T01:27:31.032Z,5.32
2022-12-31T01:28:33.951Z,6.03
2022-12-31T01:29:36.557Z,5.13
2022-12-31T01:30:40.240Z,5.60
2022-12-31T01:31:43.329Z,4.93
2022-12-31T01:32:45.839Z,5.30
2022-12-31T01:33:49.185Z,5.40
2022-12-31T01:34:51.815Z,5.55
2022-12-31T01:35:54.354Z,6.25
2022-12-31T01:36:57.016Z,5.22
2022-12-31T01:37:59.523Z,6.65
2022-12-31T01:39:03.720Z,5.72
2022-12-31T01:40:06.721Z,4.95
2022-12-31T01:41:38.161Z,5.03
2022-12-31T01:42:46.934Z,5.30
2022-12-31T01:43:59.979Z,5.10
2022-12-31T01:45:03.845Z,4.90
2022-12-31T01:46:14.525Z,6.05
2022-12-31T01:47:54.072Z,5.18
2022-12-31T01:49:32.884Z,5.13
2022-12-31T01:50:39.254Z,4.88
2022-12-31T01:51:47.797Z,5.47
2022-12-31T01:52:56.363Z,5.07
2022-12-31T01:54:02.554Z,4.72
2022-12-31T01:55:23.141Z,5.07
2022-12-31T01:56:26.529Z,5.57
2022-12-31T01:57:29.774Z,5.20
2022-12-31T01:58:41.425Z,5.45
2022-12-31T01:59:45.379Z,5.25
2022-12-31T02:00:49.221Z,6.43
2022-12-31T02:01:54.859Z,5.53
2022-12-31T02:02:57.573Z,4.75
2022-12-31T02:04:05.661Z,5.30
2022-12-31T02:05:18.741Z,5.85
2022-12-31T02:06:25.841Z,4.90
2022-12-31T02:07:28.462Z,4.90
2022-12-31T02:08:31.223Z,4.78
2022-12-31T02:09:36.017Z,4.75
2022-12-31T02:10:38.547Z,4.68
2022-12-31T02:11:41.188Z,5.63
2022-12-31T02:12:44.067Z,4.90
2022-12-31T02:13:46.595Z,5.18
2022-12-31T02:14:52.596Z,5.15
2022-12-31T02:16:19.878Z,4.50
2022-12-31T02:17:30.164Z,5.45
2022-12-31T02:19:00.037Z,5.38
2022-12-31T02:20:11.795Z,4.68
2022-12-31T02:21:44.563Z,4.63
2022-12-31T02:23:27.641Z,4.90
2022-12-31T02:24:58.497Z,4.75
2022-12-31T02:26:19.023Z,4.55
2022-12-31T02:27:33.409Z,5.15
2022-12-31T02:28:50.813Z,4.45
2022-12-31T02:30:01.380Z,4.30
2022-12-31T02:31:20.627Z,4.50
2022-12-31T02:32:46.389Z,4.80
2022-12-31T02:33:57.560Z,4.00
2022-12-31T02:35:07.863Z,4.47
2022-12-31T02:36:16.867Z,4.80
2022-12-31T02:37:23.948Z,5.00
2022-12-31T02:38:33.074Z,4.18
2022-12-31T02:39:37.035Z,4.68
2022-12-31T02:40:40.752Z,4.85
2022-12-31T02:41:53.235Z,4.57
2022-12-31T02:42:56.367Z,4.95
2022-12-31T02:43:59.476Z,5.05
2022-12-31T02:45:02.598Z,4.70
2022-12-31T02:46:21.950Z,3.75
2022-12-31T02:47:40.903Z,3.83
2022-12-31T02:49:01.527Z,4.93
2022-12-31T02:50:55.831Z,4.80
2022-12-31T02:52:14.617Z,4.43
2022-12-31T02:53:54.093Z,4.25
2022-12-31T02:55:19.656Z,4.50
2022-12-31T02:56:35.985Z,4.18
2022-12-31T02:58:01.299Z,4.35
2022-12-31T02:59:34.421Z,3.92
2022-12-31T03:01:04.503Z,5.18
2022-12-31T03:02:16.413Z,3.90
2022-12-31T03:03:21.709Z,4.10
2022-12-31T03:04:33.495Z,4.40
2022-12-31T03:05:43.673Z,4.75
2022-12-31T03:06:47.283Z,3.80
2022-12-31T03:07:50.277Z,4.28
2022-12-31T03:09:11.638Z,3.75
2022-12-31T03:10:14.763Z,4.07
2022-12-31T03:11:37.442Z,4.63
2022-12-31T03:12:48.958Z,4.57
2022-12-31T03:13:51.862Z,3.67
2022-12-31T03:14:54.494Z,4.32
2022-12-31T03:15:57.193Z,4.32
2022-12-31T03:16:59.891Z,3.90
2022-12-31T03:18:04.269Z,4.10
2022-12-31T03:19:45.186Z,3.50
2022-12-31T03:21:09.181Z,3.58
2022-12-31T03:22:32.468Z,3.08
2022-12-31T03:23:35.541Z,3.88
2022-12-31T03:24:56.709Z,3.28
2022-12-31T03:27:02.066Z,3.60
2022-12-31T03:28:16.638Z,3.67
2022-12-31T03:29:19.150Z,3.00
2022-12-31T03:30:23.114Z,3.80
2022-12-31T03:31:25.650Z,3.35
2022-12-31T03:32:28.137Z,3.97
2022-12-31T03:33:33.674Z,3.33
2022-12-31T03:34:36.197Z,3.28
2022-12-31T03:35:39.931Z,3.83
2022-12-31T03:36:42.437Z,3.28
2022-12-31T03:37:45.286Z,3.28
2022-12-31T03:38:52.590Z,3.15
2022-12-31T03:39:55.494Z,3.15
2022-12-31T03:40:58.050Z,2.97
2022-12-31T03:42:01.158Z,2.70
2022-12-31T03:43:03.773Z,2.97
2022-12-31T03:44:06.441Z,3.00
2022-12-31T03:45:10.979Z,2.75
2022-12-31T03:46:13.744Z,2.90
2022-12-31T03:47:16.283Z,2.75
2022-12-31T03:48:19.526Z,2.30
2022-12-31T03:49:22.043Z,2.78
2022-12-31T03:50:25.886Z,2.58
2022-12-31T03:51:28.528Z,2.38
2022-12-31T03:52:31.165Z,2.88
2022-12-31T03:53:35.757Z,2.60
2022-12-31T03:54:38.253Z,2.63
2022-12-31T03:55:40.892Z,2.67
2022-12-31T03:56:43.413Z,2.00
2022-12-31T03:57:46.410Z,2.10
2022-12-31T03:58:48.933Z,2.33
2022-12-31T03:59:51.571Z,1.90
2022-12-31T04:00:54.133Z,2.00
2022-12-31T04:01:56.877Z,1.80
2022-12-31T04:02:59.547Z,1.50
2022-12-31T04:04:02.019Z,1.75
2022-12-31T04:05:04.955Z,2.80
2022-12-31T04:06:07.538Z,2.30
2022-12-31T04:07:10.061Z,1.70
2022-12-31T04:08:12.703Z,1.75
2022-12-31T04:09:15.218Z,1.50
2022-12-31T04:10:18.823Z,1.40
2022-12-31T04:11:21.376Z,2.00
2022-12-31T04:12:23.864Z,1.70
2022-12-31T04:13:26.387Z,1.55
2022-12-31T04:14:29.152Z,1.70
2022-12-31T04:15:32.046Z,1.77
2022-12-31T04:16:34.690Z,1.77
2022-12-31T04:17:37.326Z,1.52
2022-12-31T04:18:39.843Z,1.35
2022-12-31T04:19:42.362Z,1.50
2022-12-31T04:20:44.997Z,1.67
2022-12-31T04:21:47.519Z,1.23
2022-12-31T04:22:50.040Z,1.40
2022-12-31T04:23:52.566Z,1.30
2022-12-31T04:24:55.092Z,1.30
2022-12-31T04:25:58.091Z,1.38
2022-12-31T04:27:07.292Z,1.73
2022-12-31T04:28:10.702Z,1.43
2022-12-31T04:29:13.449Z,1.20
2022-12-31T04:30:16.212Z,1.30
2022-12-31T04:31:19.237Z,1.17
2022-12-31T04:32:22.224Z,2.25
2022-12-31T04:33:25.097Z,1.23
2022-12-31T04:34:28.098Z,1.05
2022-12-31T04:35:31.111Z,1.02
2022-12-31T04:36:34.461Z,0.90
2022-12-31T04:37:37.586Z,1.20
2022-12-31T04:38:40.706Z,1.17
2022-12-31T04:39:43.827Z,1.23
2022-12-31T04:41:05.434Z,0.98
2022-12-31T04:42:08.553Z,0.85
2022-12-31T04:43:11.673Z,1.10
2022-12-31T04:44:14.798Z,1.20
2022-12-31T04:45:17.917Z,1.02
2022-12-31T04:46:25.120Z,0.90
2022-12-31T04:47:28.245Z,1.00
2022-12-31T04:48:31.484Z,1.10
2022-12-31T04:49:34.611Z,0.75
2022-12-31T04:50:37.966Z,0.75
2022-12-31T04:51:41.086Z,1.00
2022-12-31T04:52:44.338Z,0.80
2022-12-31T04:53:48.051Z,0.90
2022-12-31T04:54:51.182Z,1.05
2022-12-31T04:55:54.417Z,0.70
2022-12-31T04:56:57.537Z,0.88
2022-12-31T04:58:00.659Z,0.65
2022-12-31T04:59:05.341Z,1.05
2022-12-31T05:00:09.424Z,0.77
2022-12-31T05:01:13.696Z,0.88
2022-12-31T05:02:17.393Z,0.98
2022-12-31T05:03:21.963Z,0.50
2022-12-31T05:04:25.399Z,0.70
2022-12-31T05:05:28.510Z,1.10
2022-12-31T05:06:32.110Z,0.70
2022-12-31T05:07:37.036Z,1.20
2022-12-31T05:08:40.276Z,0.80
2022-12-31T05:09:43.048Z,0.80
2022-12-31T05:10:48.563Z,0.85
2022-12-31T05:11:51.694Z,0.68
2022-12-31T05:12:54.445Z,1.00
2022-12-31T05:13:57.085Z,1.05
2022-12-31T05:14:59.966Z,0.70
2022-12-31T05:16:03.581Z,0.80
2022-12-31T05:17:06.212Z,0.80
2022-12-31T05:18:09.260Z,0.80
2022-12-31T05:19:11.917Z,0.98
2022-12-31T05:20:14.550Z,1.15
2022-12-31T05:21:21.304Z,1.10
2022-12-31T05:22:29.803Z,0.98
2022-12-31T05:23:32.619Z,1.08
2022-12-31T05:24:35.187Z,1.20
2022-12-31T05:25:38.263Z,2.17
2022-12-31T05:26:40.904Z,1.02
2022-12-31T05:27:43.476Z,0.90
2022-12-31T05:28:46.114Z,0.88
2022-12-31T05:29:48.758Z,0.88
2022-12-31T05:30:51.655Z,1.63
2022-12-31T05:31:54.156Z,1.10
2022-12-31T05:32:56.789Z,1.48
2022-12-31T05:33:59.560Z,0.80
2022-12-31T05:35:02.168Z,0.90
2022-12-31T05:36:05.169Z,1.00
2022-12-31T05:37:07.837Z,1.20
2022-12-31T05:38:12.145Z,1.10
2022-12-31T05:39:14.811Z,0.98
2022-12-31T05:40:17.563Z,1.00
2022-12-31T05:41:20.077Z,0.95
2022-12-31T05:42:23.200Z,0.75
2022-12-31T05:43:25.720Z,1.05
2022-12-31T05:44:28.121Z,0.90
2022-12-31T05:45:31.347Z,1.00
2022-12-31T05:46:34.728Z,1.17
2022-12-31T05:47:37.836Z,1.17
2022-12-31T05:48:40.602Z,0.75
2022-12-31T05:49:43.244Z,1.23
2022-12-31T05:50:45.886Z,1.00
2022-12-31T05:51:48.414Z,0.90
2022-12-31T05:52:51.288Z,0.82
2022-12-31T05:53:54.059Z,1.23
2022-12-31T05:54:57.786Z,1.63
2022-12-31T05:56:00.558Z,1.33
2022-12-31T05:57:04.498Z,1.13
2022-12-31T05:58:07.369Z,1.00
2022-12-31T05:59:10.261Z,1.20
2022-12-31T06:00:13.252Z,1.00
2022-12-31T06:01:18.898Z,1.20
2022-12-31T06:02:22.058Z,1.10
2022-12-31T06:03:24.767Z,1.20
2022-12-31T06:04:27.411Z,0.95
2022-12-31T06:05:29.939Z,0.95
2022-12-31T06:06:32.695Z,0.90
2022-12-31T06:07:35.352Z,1.38
2022-12-31T06:08:39.660Z,1.20
2022-12-31T06:09:42.178Z,1.25
2022-12-31T06:10:44.697Z,1.50
2022-12-31T06:11:47.578Z,1.50
2022-12-31T06:12:50.225Z,1.20
2022-12-31T06:13:52.864Z,2.40
2022-12-31T06:14:55.512Z,1.92
2022-12-31T06:15:58.096Z,1.75
2022-12-31T06:17:00.918Z,1.30
2022-12-31T06:18:03.548Z,1.70
2022-12-31T06:19:06.438Z,1.60
2022-12-31T06:20:13.028Z,1.23
2022-12-31T06:21:16.035Z,1.67
2022-12-31T06:22:18.808Z,1.60
2022-12-31T06:23:21.561Z,1.40
2022-12-31T06:24:24.206Z,1.23
2022-12-31T06:25:26.722Z,1.60
2022-12-31T06:26:29.243Z,1.48
2022-12-31T06:27:31.774Z,1.77
2022-12-31T06:28:34.408Z,1.33
2022-12-31T06:29:37.409Z,1.35
2022-12-31T06:30:40.049Z,1.38
2022-12-31T06:31:42.818Z,1.40
2022-12-31T06:32:45.575Z,1.10
2022-12-31T06:33:48.334Z,1.25
2022-12-31T06:34:51.350Z,1.40
2022-12-31T06:36:02.138Z,1.30
2022-12-31T06:37:05.275Z,0.93
2022-12-31T06:38:08.271Z,1.10
2022-12-31T06:39:11.390Z,1.13
2022-12-31T06:40:14.641Z,1.17
2022-12-31T06:41:18.723Z,1.08
2022-12-31T06:42:21.833Z,0.93
2022-12-31T06:43:24.952Z,1.00
2022-12-31T06:44:28.074Z,1.10
2022-12-31T06:45:31.195Z,1.00
2022-12-31T06:46:34.498Z,0.95
2022-12-31T06:47:37.800Z,1.23
2022-12-31T06:48:43.439Z,1.15
2022-12-31T06:49:46.560Z,1.23
2022-12-31T06:50:49.684Z,1.17
2022-12-31T06:51:52.936Z,0.95
2022-12-31T06:52:56.051Z,1.65
2022-12-31T06:53:59.168Z,0.95
2022-12-31T06:55:02.529Z,1.00
2022-12-31T06:56:08.416Z,1.05
2022-12-31T06:57:11.895Z,1.08
2022-12-31T06:58:16.820Z,1.00
2022-12-31T06:59:28.836Z,1.00
2022-12-31T07:00:32.058Z,1.15
2022-12-31T07:01:50.617Z,0.80
2022-12-31T07:03:02.127Z,0.75
2022-12-31T07:04:32.928Z,1.10
2022-12-31T07:05:42.267Z,0.68
2022-12-31T07:07:09.274Z,1.00
2022-12-31T07:08:44.551Z,1.00
2022-12-31T07:10:08.690Z,1.08
2022-12-31T07:11:32.199Z,0.70
2022-12-31T07:12:56.331Z,1.15
2022-12-31T07:13:59.085Z,0.82
2022-12-31T07:15:20.216Z,1.20
2022-12-31T07:16:27.144Z,0.98
2022-12-31T07:17:48.411Z,0.95
2022-12-31T07:18:58.131Z,0.73
2022-12-31T07:20:10.367Z,0.95
2022-12-31T07:21:16.426Z,0.90
2022-12-31T07:22:20.819Z,0.85
2022-12-31T07:23:23.696Z,1.08
2022-12-31T07:24:26.991Z,0.90
2022-12-31T07:25:30.135Z,0.88
2022-12-31T07:26:56.488Z,1.10
2022-12-31T07:27:59.704Z,1.10
2022-12-31T07:29:09.546Z,1.52
2022-12-31T07:30:17.106Z,1.52
2022-12-31T07:31:29.777Z,1.60
2022-12-31T07:32:54.110Z,1.20
2022-12-31T07:34:00.476Z,1.25
2022-12-31T07:35:35.218Z,1.60
2022-12-31T07:36:58.674Z,1.83
2022-12-31T07:38:12.927Z,3.03
2022-12-31T07:39:30.363Z,2.35
2022-12-31T07:40:44.285Z,2.03
2022-12-31T07:42:09.475Z,2.08
2022-12-31T07:43:24.090Z,2.00
2022-12-31T07:44:35.642Z,2.67
2022-12-31T07:45:50.258Z,3.10
2022-12-31T07:46:57.288Z,2.28
2022-12-31T07:48:02.676Z,2.72
2022-12-31T07:49:13.461Z,2.72
2022-12-31T07:50:18.124Z,2.50
2022-12-31T07:51:21.127Z,2.60
2022-12-31T07:52:24.620Z,2.80
2022-12-31T07:53:27.491Z,2.90
2022-12-31T07:54:30.125Z,3.25
2022-12-31T07:55:32.659Z,3.63
2022-12-31T07:56:35.411Z,3.05
2022-12-31T07:58:02.893Z,4.00
2022-12-31T07:59:24.605Z,3.78
2022-12-31T08:00:29.530Z,4.07
2022-12-31T08:01:50.172Z,3.88
2022-12-31T08:03:11.299Z,4.78
2022-12-31T08:04:31.816Z,3.83
2022-12-31T08:05:41.293Z,4.45
2022-12-31T08:06:49.694Z,4.30
2022-12-31T08:08:17.179Z,4.25
2022-12-31T08:09:39.375Z,4.43
2022-12-31T08:11:03.621Z,4.60
2022-12-31T08:12:08.178Z,4.25
2022-12-31T08:13:12.268Z,3.70
2022-12-31T08:14:15.501Z,4.75
2022-12-31T08:15:19.479Z,4.13
2022-12-31T08:16:22.279Z,5.10
2022-12-31T08:17:24.875Z,4.60
2022-12-31T08:18:27.751Z,4.75
2022-12-31T08:19:32.435Z,4.03
2022-12-31T08:21:07.591Z,4.35
2022-12-31T08:22:23.555Z,5.13
2022-12-31T08:23:41.470Z,3.53
2022-12-31T08:25:16.130Z,4.47
2022-12-31T08:26:30.759Z,3.92
2022-12-31T08:27:50.810Z,3.80
2022-12-31T08:29:17.087Z,4.68
2022-12-31T08:30:21.897Z,3.92
2022-12-31T08:31:43.676Z,3.78
2022-12-31T08:33:03.900Z,3.58
2022-12-31T08:34:09.661Z,4.07
2022-12-31T08:35:46.501Z,4.03
2022-12-31T08:37:07.263Z,2.75
2022-12-31T08:38:29.698Z,3.30
2022-12-31T08:40:51.783Z,3.33
2022-12-31T08:41:58.055Z,2.83
2022-12-31T08:43:29.114Z,2.95
2022-12-31T08:45:04.411Z,3.10
2022-12-31T08:46:19.632Z,3.22
2022-12-31T08:47:43.398Z,2.90
2022-12-31T08:48:48.201Z,3.00
2022-12-31T08:49:51.317Z,3.38
2022-12-31T08:50:55.159Z,3.08
2022-12-31T08:51:59.721Z,3.08
2022-12-31T08:53:03.093Z,3.65
2022-12-31T08:54:06.453Z,3.05
2022-12-31T08:55:17.131Z,3.55
2022-12-31T08:56:30.098Z,3.50
2022-12-31T08:57:34.172Z,2.67
2022-12-31T08:58:49.542Z,2.95
2022-12-31T09:00:07.780Z,3.17
2022-12-31T09:01:13.132Z,3.33
2022-12-31T09:02:22.307Z,2.97
2022-12-31T09:03:52.917Z,3.25
2022-12-31T09:05:20.387Z,2.95
2022-12-31T09:07:00.349Z,2.78
2022-12-31T09:08:44.990Z,2.53
2022-12-31T09:10:22.975Z,2.80
2022-12-31T09:11:53.392Z,2.50
2022-12-31T09:13:06.236Z,2.60
2022-12-31T09:14:14.876Z,2.92
2022-12-31T09:15:26.647Z,2.95
2022-12-31T09:16:58.015Z,3.17
2022-12-31T09:18:01.085Z,2.88
2022-12-31T09:19:04.353Z,2.72
2022-12-31T09:20:14.407Z,3.03
2022-12-31T09:21:17.287Z,2.63
2022-12-31T09:22:20.176Z,3.08
2022-12-31T09:23:23.173Z,2.80
2022-12-31T09:24:25.985Z,3.38
2022-12-31T09:25:30.856Z,2.63
2022-12-31T09:26:45.382Z,2.90
2022-12-31T09:28:06.510Z,3.70
2022-12-31T09:29:34.986Z,3.17
2022-12-31T09:31:11.587Z,2.28
2022-12-31T09:32:50.922Z,2.60
2022-12-31T09:35:35.316Z,3.33
2022-12-31T09:36:51.399Z,2.45
2022-12-31T09:38:21.758Z,3.33
2022-12-31T09:39:39.434Z,2.50
2022-12-31T09:41:15.923Z,3.05
2022-12-31T09:42:51.082Z,2.90
2022-12-31T09:44:21.437Z,3.30
2022-12-31T09:45:39.346Z,3.25
2022-12-31T09:46:53.488Z,3.20
2022-12-31T09:48:19.758Z,2.78
2022-12-31T09:49:28.045Z,2.95
2022-12-31T09:50:55.280Z,3.50
2022-12-31T09:52:03.682Z,3.72
2022-12-31T09:53:53.726Z,2.60
2022-12-31T09:55:02.250Z,2.80
2022-12-31T09:56:11.254Z,3.25
2022-12-31T09:57:24.084Z,2.90
2022-12-31T09:58:29.251Z,3.13
2022-12-31T10:00:10.059Z,3.35
2022-12-31T10:03:12.963Z,2.70
2022-12-31T10:04:33.573Z,2.75
2022-12-31T10:05:59.611Z,2.67
2022-12-31T10:07:17.018Z,2.13
2022-12-31T10:08:34.534Z,2.17
2022-12-31T10:09:45.578Z,2.10
2022-12-31T10:11:10.784Z,2.45
2022-12-31T10:12:44.377Z,1.80
2022-12-31T10:14:14.015Z,2.25
2022-12-31T10:15:35.027Z,2.33
2022-12-31T10:18:32.866Z,2.00
2022-12-31T10:20:05.640Z,1.55
2022-12-31T10:21:20.147Z,1.50
2022-12-31T10:22:36.473Z,1.40
2022-12-31T10:24:04.926Z,1.52
2022-12-31T10:25:38.815Z,1.52
2022-12-31T10:26:53.444Z,1.10
2022-12-31T10:28:15.364Z,1.45
2022-12-31T10:29:47.400Z,1.60
2022-12-31T10:31:11.217Z,1.55
2022-12-31T10:32:32.062Z,1.40
2022-12-31T10:33:42.010Z,0.82
2022-12-31T10:34:55.694Z,0.60
2022-12-31T10:36:30.734Z,0.60
2022-12-31T10:37:54.013Z,0.60
2022-12-31T10:39:23.989Z,0.70
2022-12-31T10:40:36.383Z,0.65
2022-12-31T10:41:51.867Z,0.55
2022-12-31T10:43:13.822Z,0.80
2022-12-31T10:44:32.065Z,0.55
2022-12-31T10:45:49.504Z,0.40
2022-12-31T10:47:31.350Z,0.60
2022-12-31T10:49:05.075Z,0.65
2022-12-31T10:50:38.195Z,0.65
2022-12-31T10:51:56.203Z,0.43
2022-12-31T10:53:21.426Z,0.30
2022-12-31T10:55:12.293Z,0.50
2022-12-31T10:56:40.846Z,0.60
2022-12-31T10:58:11.566Z,0.20
2022-12-31T10:59:40.249Z,0.30
2022-12-31T11:00:56.962Z,0.20
2022-12-31T11:02:10.804Z,0.30
2022-12-31T11:03:55.019Z,0.43
2022-12-31T11:05:13.273Z,0.30
2022-12-31T11:06:53.582Z,0.38
2022-12-31T11:08:11.827Z,0.20
2022-12-31T11:09:31.258Z,0.30
2022-12-31T11:10:52.509Z,0.30
2022-12-31T11:12:26.117Z,0.25
2022-12-31T11:13:31.992Z,0.50
2022-12-31T11:14:49.994Z,0.20
2022-12-31T11:16:15.119Z,0.40
2022-12-31T11:17:32.964Z,0.10
2022-12-31T11:18:47.720Z,0.25
2022-12-31T11:20:25.768Z,0.30
2022-12-31T11:22:16.531Z,0.20
2022-12-31T11:23:35.490Z,0.30
2022-12-31T11:25:06.504Z,0.10
2022-12-31T11:26:08.974Z,0.20
2022-12-31T11:27:22.951Z,0.40
2022-12-31T11:28:44.497Z,0.30
2022-12-31T11:30:01.825Z,0.20
2022-12-31T11:31:16.396Z,0.15
2022-12-31T11:32:26.550Z,0.30
2022-12-31T11:34:04.235Z,0.38
2022-12-31T11:35:20.988Z,0.17
2022-12-31T11:37:04.676Z,0.20
2022-12-31T11:38:32.155Z,0.20
2022-12-31T11:39:47.471Z,0.28
2022-12-31T11:41:29.650Z,0.30
2022-12-31T11:42:41.401Z,0.20
2022-12-31T11:44:00.044Z,0.20
2022-12-31T11:45:11.294Z,0.20
2022-12-31T11:46:16.998Z,0.70
2022-12-31T11:48:27.880Z,0.20
2022-12-31T11:49:24.741Z,0.20
2022-12-31T11:50:39.138Z,0.40
2022-12-31T11:51:55.961Z,0.30
2022-12-31T11:53:31.026Z,0.40
2022-12-31T11:54:55.603Z,0.57
2022-12-31T11:56:22.472Z,0.65
2022-12-31T11:57:35.925Z,0.30
2022-12-31T11:58:42.403Z,0.50
2022-12-31T11:59:45.170Z,0.40
2022-12-31T12:01:19.802Z,0.38
2022-12-31T12:02:34.436Z,0.50
2022-12-31T12:03:42.676Z,0.22
2022-12-31T12:04:48.768Z,0.50
2022-12-31T12:05:51.654Z,0.70
2022-12-31T12:06:54.287Z,0.55
2022-12-31T12:07:57.185Z,0.57
2022-12-31T12:09:03.892Z,0.50
2022-12-31T12:10:42.172Z,0.40
2022-12-31T12:11:44.696Z,0.52
2022-12-31T12:12:47.212Z,0.90
2022-12-31T12:13:49.984Z,0.63
2022-12-31T12:14:54.786Z,0.63
2022-12-31T12:16:03.382Z,0.65
2022-12-31T12:17:18.665Z,0.60
2022-12-31T12:18:29.101Z,0.57
2022-12-31T12:19:33.943Z,0.50
2022-12-31T12:20:39.081Z,0.60
2022-12-31T12:21:49.403Z,0.73
2022-12-31T12:22:56.348Z,0.50
2022-12-31T12:24:25.747Z,0.50
2022-12-31T12:25:39.911Z,0.75
2022-12-31T12:26:47.001Z,0.63
2022-12-31T12:27:52.047Z,0.70
2022-12-31T12:28:54.564Z,0.45
2022-12-31T12:29:57.200Z,0.60
2022-12-31T12:31:05.203Z,0.38
2022-12-31T12:32:17.003Z,0.77
2022-12-31T12:33:20.727Z,0.40
2022-12-31T12:34:35.485Z,0.50
2022-12-31T12:35:39.567Z,0.40
2022-12-31T12:36:51.092Z,0.50
2022-12-31T12:38:06.818Z,0.40
2022-12-31T12:39:21.097Z,0.60
2022-12-31T12:40:31.452Z,0.77
2022-12-31T12:41:34.415Z,0.63
2022-12-31T12:42:50.022Z,0.60
2022-12-31T12:44:15.224Z,1.10
2022-12-31T12:45:21.940Z,2.38
2022-12-31T12:46:34.682Z,1.10
2022-12-31T12:47:37.915Z,1.30
2022-12-31T12:48:43.907Z,2.80
2022-12-31T12:49:50.149Z,1.42
2022-12-31T12:50:53.391Z,1.55
2022-12-31T12:52:02.399Z,1.75
2022-12-31T12:53:17.996Z,1.40
2022-12-31T12:54:40.926Z,1.85
2022-12-31T12:56:07.803Z,1.65
2022-12-31T12:57:33.610Z,1.30
2022-12-31T12:58:57.727Z,1.65
2022-12-31T13:00:20.058Z,2.13
2022-12-31T13:01:41.849Z,1.73
2022-12-31T13:03:09.370Z,1.33
2022-12-31T13:04:49.698Z,1.15
2022-12-31T13:06:17.416Z,1.37
2022-12-31T13:07:46.938Z,1.40
2022-12-31T13:08:53.301Z,2.30
2022-12-31T13:10:02.426Z,3.83
2022-12-31T13:11:22.103Z,2.70
2022-12-31T13:13:05.178Z,1.65
2022-12-31T13:14:31.122Z,1.45
2022-12-31T13:15:58.293Z,1.90
2022-12-31T13:17:21.033Z,2.72
2022-12-31T13:18:42.996Z,3.13
2022-12-31T13:19:54.277Z,2.17
2022-12-31T13:21:32.686Z,1.98
2022-12-31T13:22:59.098Z,2.00
2022-12-31T13:24:32.448Z,1.83
2022-12-31T13:25:40.900Z,1.75
2022-12-31T13:27:19.310Z,1.92
2022-12-31T13:28:25.132Z,2.25
2022-12-31T13:29:31.660Z,1.80
2022-12-31T13:30:41.742Z,2.53
2022-12-31T13:31:45.834Z,1.52
2022-12-31T13:33:06.904Z,2.10
2022-12-31T13:34:32.265Z,1.60
2022-12-31T13:36:11.507Z,2.30
2022-12-31T13:37:33.427Z,2.38
2022-12-31T13:38:47.379Z,1.13
2022-12-31T13:39:57.957Z,0.77
2022-12-31T13:41:06.313Z,1.30
2022-12-31T13:42:27.315Z,1.35
2022-12-31T13:43:35.957Z,1.38
2022-12-31T13:44:48.002Z,1.10
2022-12-31T13:46:10.993Z,1.35
2022-12-31T13:47:24.922Z,1.17
2022-12-31T13:48:36.834Z,0.95
2022-12-31T13:49:48.119Z,1.08
2022-12-31T13:51:01.936Z,1.30
2022-12-31T13:52:16.176Z,1.40
2022-12-31T13:53:29.644Z,1.02
2022-12-31T13:55:09.609Z,1.10
2022-12-31T13:56:24.270Z,1.30
2022-12-31T13:57:43.225Z,1.40
2022-12-31T13:59:21.963Z,1.65
2022-12-31T14:00:46.385Z,1.45
2022-12-31T14:02:02.060Z,1.30
2022-12-31T14:03:31.926Z,1.45
2022-12-31T14:04:50.650Z,1.25
2022-12-31T14:06:01.688Z,1.10
2022-12-31T14:07:18.162Z,0.88
2022-12-31T14:08:21.017Z,1.00
2022-12-31T14:09:27.974Z,1.00
2022-12-31T14:10:42.754Z,1.27
2022-12-31T14:12:03.612Z,1.60
2022-12-31T14:13:17.422Z,1.17
2022-12-31T14:14:33.016Z,1.00
2022-12-31T14:15:46.215Z,1.33
2022-12-31T14:17:03.744Z,1.20
2022-12-31T14:18:27.272Z,1.15
2022-12-31T14:19:47.657Z,1.00
2022-12-31T14:21:04.115Z,1.30
2022-12-31T14:22:40.590Z,0.85
2022-12-31T14:24:06.862Z,1.00
2022-12-31T14:25:22.961Z,1.00
2022-12-31T14:26:48.272Z,1.08
2022-12-31T14:27:53.550Z,1.92
2022-12-31T14:29:10.478Z,0.73
2022-12-31T14:30:19.829Z,0.90
2022-12-31T14:31:37.995Z,0.93
2022-12-31T14:32:58.840Z,0.90
2022-12-31T14:34:16.501Z,0.88
2022-12-31T14:35:44.804Z,0.75
2022-12-31T14:37:07.739Z,1.10
2022-12-31T14:38:28.850Z,1.02
2022-12-31T14:40:25.139Z,0.68
2022-12-31T14:42:03.174Z,0.68
2022-12-31T14:43:39.778Z,0.52
2022-12-31T14:44:59.479Z,0.60
2022-12-31T14:46:27.115Z,0.68
2022-12-31T14:47:58.873Z,0.90
2022-12-31T14:49:49.387Z,0.80
2022-12-31T14:50:53.237Z,0.77
2022-12-31T14:51:56.349Z,1.17
2022-12-31T14:53:10.153Z,0.90
2022-12-31T14:54:45.318Z,0.80
2022-12-31T14:56:07.514Z,0.50
2022-12-31T14:57:21.677Z,0.60
2022-12-31T14:58:30.678Z,0.80
2022-12-31T14:59:38.789Z,0.50
2022-12-31T15:01:01.249Z,0.98
2022-12-31T15:02:04.744Z,0.75
2022-12-31T15:03:16.913Z,0.40
2022-12-31T15:05:10.536Z,0.80
2022-12-31T15:06:35.257Z,0.63
2022-12-31T15:08:18.816Z,0.80
2022-12-31T15:09:59.497Z,0.38
2022-12-31T15:11:16.184Z,1.52
2022-12-31T15:12:30.474Z,1.65
2022-12-31T15:13:39.707Z,0.85
2022-12-31T15:15:01.188Z,0.55
2022-12-31T15:16:07.311Z,0.65
2022-12-31T15:17:45.715Z,0.50
2022-12-31T15:19:10.323Z,0.40
2022-12-31T15:20:41.636Z,1.20
2022-12-31T15:23:22.679Z,0.57
2022-12-31T15:24:27.972Z,0.77
2022-12-31T15:25:40.264Z,0.60
2022-12-31T15:26:50.649Z,0.60
2022-12-31T15:27:54.609Z,0.52
2022-12-31T15:29:22.267Z,0.80
2022-12-31T15:30:37.050Z,1.25
2022-12-31T15:31:48.196Z,1.23
2022-12-31T15:32:50.962Z,1.88
2022-12-31T15:34:21.386Z,1.27
2022-12-31T15:35:30.548Z,1.05
2022-12-31T15:36:41.304Z,1.35
2022-12-31T15:37:43.823Z,1.55
2022-12-31T15:38:46.989Z,3.33
2022-12-31T15:39:49.588Z,7.70
2022-12-31T15:40:52.989Z,5.45
2022-12-31T15:42:36.094Z,2.05
2022-12-31T15:43:24.075Z,4.80
2022-12-31T15:44:35.476Z,7.53
2022-12-31T15:45:40.994Z,4.40
2022-12-31T15:46:44.355Z,8.70
2022-12-31T15:47:51.196Z,6.32
2022-12-31T15:49:06.785Z,4.38
2022-12-31T15:50:18.198Z,10.40
2022-12-31T15:51:29.718Z,7.40
2022-12-31T15:52:40.887Z,10.85
2022-12-31T15:53:52.291Z,7.72
2022-12-31T15:54:57.421Z,8.35
2022-12-31T15:56:02.244Z,14.25
2022-12-31T15:57:09.403Z,11.27
2022-12-31T15:58:19.402Z,5.70
2022-12-31T15:59:23.842Z,5.88
2022-12-31T16:00:34.761Z,12.23
2022-12-31T16:04:14.130Z,8.43
2022-12-31T16:05:25.656Z,12.25
2022-12-31T16:06:31.526Z,13.35
2022-12-31T16:07:35.372Z,11.63